Time;durP1;ratioP1;P1;durP2;ratioP2;P2;SDS_P1;SDS_P2;PMS_P1;PMS_P2;Temp;Humidity;BMP_temperature;BMP_pressure;BME280_temperature;BME280_humidity;BME280_pressure;Samples;Min_cycle;Max_cycle;Signal;HPM_P1;HPM_P2
2020/12/16 00:00:09;;;;;;;10.38;7.05;;;5.30;77.40;;;;;;5044553;28;20059;-66
2020/12/16 00:02:39;;;;;;;11.27;7.15;;;5.30;77.90;;;;;;5050845;28;20112;-66
2020/12/16 00:05:07;;;;;;;10.93;6.78;;;5.30;77.20;;;;;;5052289;28;20055;-66
2020/12/16 00:07:33;;;;;;;12.48;7.30;;;5.30;77.40;;;;;;5051313;28;20079;-66
2020/12/16 00:09:59;;;;;;;10.70;6.80;;;5.30;77.50;;;;;;5052714;28;20025;-66
2020/12/16 00:12:25;;;;;;;8.48;5.47;;;5.30;77.30;;;;;;5049412;28;20039;-66
2020/12/16 00:14:51;;;;;;;9.10;6.13;;;5.20;77.60;;;;;;5048624;28;20112;-66
2020/12/16 00:17:17;;;;;;;9.15;6.05;;;5.20;76.90;;;;;;5049209;28;20100;-66
2020/12/16 00:19:42;;;;;;;10.57;7.05;;;5.20;76.60;;;;;;5046028;28;20032;-66
2020/12/16 00:22:08;;;;;;;10.57;6.65;;;5.20;76.90;;;;;;5052316;28;20090;-66
2020/12/16 00:24:34;;;;;;;10.02;6.43;;;5.20;77.00;;;;;;5045276;28;20028;-66
2020/12/16 00:27:00;;;;;;;8.20;5.72;;;5.20;76.90;;;;;;5051606;28;20068;-66
2020/12/16 00:29:25;;;;;;;9.50;5.45;;;5.20;76.80;;;;;;5044822;28;20369;-66
2020/12/16 00:31:51;;;;;;;9.75;6.72;;;5.10;76.80;;;;;;5064002;28;20393;-66
2020/12/16 00:34:17;;;;;;;11.90;6.88;;;5.10;77.10;;;;;;5062842;28;20092;-66
2020/12/16 00:36:43;;;;;;;12.30;6.85;;;5.20;77.20;;;;;;5050993;28;20025;-66
2020/12/16 00:39:10;;;;;;;10.10;6.43;;;5.10;76.90;;;;;;5059429;28;20365;-66
2020/12/16 00:41:36;;;;;;;8.15;5.57;;;5.10;76.90;;;;;;5051569;28;20033;-66
2020/12/16 00:44:04;;;;;;;8.45;6.18;;;5.20;76.80;;;;;;5056531;28;20119;-66
2020/12/16 00:46:30;;;;;;;6.88;5.25;;;5.10;76.40;;;;;;5054012;28;20036;-66
2020/12/16 00:48:57;;;;;;;8.15;5.68;;;5.10;76.40;;;;;;5049570;28;20461;-66
2020/12/16 00:51:23;;;;;;;8.25;6.00;;;5.00;76.50;;;;;;5048794;28;20029;-66
2020/12/16 00:53:48;;;;;;;7.20;5.22;;;5.10;76.80;;;;;;5038743;28;20044;-66
2020/12/16 00:56:14;;;;;;;7.43;5.28;;;5.00;76.70;;;;;;5047327;28;20075;-66
2020/12/16 00:58:40;;;;;;;8.07;5.95;;;5.00;76.60;;;;;;5051842;28;20412;-66
2020/12/16 01:01:06;;;;;;;7.88;5.22;;;5.00;76.60;;;;;;5050320;28;20354;-66
2020/12/16 01:03:32;;;;;;;7.90;5.38;;;5.00;76.60;;;;;;5050206;28;20091;-66
2020/12/16 01:05:58;;;;;;;8.18;4.68;;;5.00;76.40;;;;;;5047971;28;20025;-66
2020/12/16 01:08:24;;;;;;;7.03;5.10;;;5.00;76.40;;;;;;5051639;28;20021;-66
2020/12/16 01:10:50;;;;;;;7.72;5.15;;;5.00;76.60;;;;;;5049741;28;20036;-66
2020/12/16 01:13:16;;;;;;;8.75;5.65;;;5.00;76.50;;;;;;5049560;28;20477;-66
2020/12/16 01:15:42;;;;;;;8.48;6.05;;;4.90;76.60;;;;;;5049592;28;20057;-66
2020/12/16 01:18:08;;;;;;;7.32;4.85;;;4.90;76.60;;;;;;5053287;28;20029;-66
2020/12/16 01:20:33;;;;;;;8.88;5.25;;;4.90;76.50;;;;;;5047267;28;20354;-66
2020/12/16 01:22:59;;;;;;;6.65;4.88;;;4.90;76.50;;;;;;5042578;28;20059;-66
2020/12/16 01:25:25;;;;;;;9.20;6.07;;;4.90;76.70;;;;;;5047120;28;20025;-66
2020/12/16 01:27:52;;;;;;;9.73;5.93;;;4.90;76.90;;;;;;5030843;28;20095;-66
2020/12/16 01:30:18;;;;;;;8.43;5.68;;;4.90;76.80;;;;;;5037722;28;20022;-66
2020/12/16 01:32:44;;;;;;;6.20;4.88;;;4.90;76.60;;;;;;5044008;28;20051;-66
2020/12/16 01:35:10;;;;;;;8.38;5.78;;;5.00;76.70;;;;;;5046903;28;20063;-66
2020/12/16 01:37:36;;;;;;;8.55;6.00;;;5.00;76.70;;;;;;5044628;28;20033;-66
2020/12/16 01:40:08;;;;;;;6.72;5.25;;;5.00;76.70;;;;;;5040950;28;20037;-66
2020/12/16 01:42:34;;;;;;;7.38;5.30;;;5.00;77.30;;;;;;5034817;28;20043;-66
2020/12/16 01:45:13;;;;;;;9.57;6.25;;;5.00;76.80;;;;;;5045754;28;20029;-66
2020/12/16 01:47:39;;;;;;;8.85;5.93;;;5.00;76.70;;;;;;5034035;28;20036;-66
2020/12/16 01:50:07;;;;;;;7.63;5.57;;;5.00;76.50;;;;;;5031091;28;20025;-66
2020/12/16 01:52:33;;;;;;;7.78;5.35;;;5.00;76.40;;;;;;5054800;28;20065;-66
2020/12/16 01:55:00;;;;;;;9.82;6.07;;;5.10;76.50;;;;;;5046384;28;20437;-66
2020/12/16 01:57:29;;;;;;;8.63;5.57;;;5.10;76.20;;;;;;5058635;28;20021;-66
2020/12/16 01:59:56;;;;;;;10.82;6.43;;;5.10;76.20;;;;;;5056128;28;20032;-66
2020/12/16 02:02:26;;;;;;;9.32;6.07;;;5.10;76.20;;;;;;5047645;28;20037;-66
2020/12/16 02:04:52;;;;;;;8.40;6.38;;;5.00;76.40;;;;;;5051296;28;20103;-66
2020/12/16 02:07:21;;;;;;;9.32;6.00;;;5.00;76.30;;;;;;5054024;28;20495;-66
2020/12/16 02:09:47;;;;;;;8.77;5.50;;;5.00;76.10;;;;;;5043293;28;20346;-66
2020/12/16 02:12:15;;;;;;;7.05;5.57;;;5.00;76.00;;;;;;5053600;28;20496;-66
2020/12/16 02:14:42;;;;;;;7.90;5.60;;;5.00;76.10;;;;;;5050583;28;20021;-66
2020/12/16 02:17:09;;;;;;;8.13;5.65;;;5.00;76.30;;;;;;5054968;28;20049;-66
2020/12/16 02:19:53;;;;;;;7.85;5.88;;;5.00;76.10;;;;;;5053318;28;20836;-66
2020/12/16 02:22:18;;;;;;;10.25;6.28;;;5.00;76.40;;;;;;5053674;28;20480;-66
2020/12/16 02:25:05;;;;;;;8.80;6.55;;;5.00;76.40;;;;;;5044378;28;20088;-66
2020/12/16 02:27:32;;;;;;;11.73;7.03;;;5.00;76.50;;;;;;5053648;28;20094;-66
2020/12/16 02:29:57;;;;;;;10.30;6.32;;;5.00;76.50;;;;;;5055090;28;20541;-66
2020/12/16 02:32:25;;;;;;;9.88;6.38;;;5.00;76.40;;;;;;5054983;28;20095;-66
2020/12/16 02:34:52;;;;;;;8.35;6.03;;;5.00;76.40;;;;;;5052997;28;20435;-66
2020/12/16 02:37:18;;;;;;;8.25;5.72;;;5.00;76.30;;;;;;5051430;28;20033;-66
2020/12/16 02:39:45;;;;;;;7.65;5.57;;;5.00;76.30;;;;;;5043998;28;20489;-66
2020/12/16 02:42:11;;;;;;;7.43;5.90;;;5.00;75.90;;;;;;5052271;28;20017;-66
2020/12/16 02:44:37;;;;;;;7.85;5.50;;;4.90;76.50;;;;;;5049672;28;20032;-66
2020/12/16 02:47:03;;;;;;;7.47;5.10;;;4.90;76.10;;;;;;5047781;28;20032;-66
2020/12/16 02:49:29;;;;;;;8.20;5.38;;;4.90;76.40;;;;;;5046410;28;20025;-66
2020/12/16 02:51:57;;;;;;;8.05;5.40;;;4.90;76.40;;;;;;5051325;28;20099;-66
2020/12/16 02:54:23;;;;;;;8.30;6.13;;;5.00;76.50;;;;;;5045453;28;20063;-66
2020/12/16 02:56:53;;;;;;;8.48;5.82;;;5.00;76.30;;;;;;5039902;28;20014;-66
2020/12/16 02:59:24;;;;;;;11.05;6.70;;;5.00;76.40;;;;;;5044519;28;20029;-66
2020/12/16 03:01:54;;;;;;;9.43;6.65;;;5.00;77.00;;;;;;5051559;28;20369;-66
2020/12/16 03:04:20;;;;;;;9.70;6.22;;;5.00;76.30;;;;;;5054573;28;20028;-66
2020/12/16 03:06:52;;;;;;;7.70;5.65;;;5.00;76.10;;;;;;5055050;28;20074;-66
2020/12/16 03:09:19;;;;;;;7.90;5.97;;;5.00;75.90;;;;;;5050144;28;20021;-66
2020/12/16 03:11:49;;;;;;;7.72;5.70;;;5.00;76.00;;;;;;5046175;28;20017;-66
2020/12/16 03:14:14;;;;;;;8.35;6.28;;;5.00;76.10;;;;;;5046843;28;20013;-66
2020/12/16 03:16:40;;;;;;;8.95;6.13;;;5.00;75.90;;;;;;5054930;28;20040;-66
2020/12/16 03:19:06;;;;;;;9.50;6.45;;;5.00;76.10;;;;;;5047831;28;20040;-66
2020/12/16 03:21:31;;;;;;;9.10;5.97;;;5.00;76.00;;;;;;5050161;28;20039;-66
2020/12/16 03:23:57;;;;;;;8.40;5.95;;;5.00;75.80;;;;;;5046305;28;20033;-66
2020/12/16 03:26:23;;;;;;;7.60;5.55;;;4.90;75.90;;;;;;5045483;28;20457;-66
2020/12/16 03:28:49;;;;;;;7.97;5.43;;;4.90;75.90;;;;;;5052989;28;20075;-66
2020/12/16 03:31:15;;;;;;;7.50;5.63;;;4.90;76.10;;;;;;5052961;28;20054;-66
2020/12/16 03:33:43;;;;;;;8.32;5.80;;;4.90;76.20;;;;;;5052456;28;20092;-66
2020/12/16 03:36:17;;;;;;;7.13;5.15;;;4.90;76.20;;;;;;5050270;28;20436;-66
2020/12/16 03:38:43;;;;;;;8.80;6.05;;;5.00;76.10;;;;;;5050545;28;20392;-66
2020/12/16 03:41:10;;;;;;;7.97;5.38;;;4.90;75.90;;;;;;5053504;28;20389;-66
2020/12/16 03:43:36;;;;;;;9.07;6.07;;;4.90;76.00;;;;;;5047677;28;20025;-66
2020/12/16 03:46:06;;;;;;;7.45;5.65;;;5.00;76.20;;;;;;5052581;28;20051;-66
2020/12/16 03:48:32;;;;;;;8.73;6.28;;;5.00;76.10;;;;;;5050052;28;20072;-66
2020/12/16 03:50:57;;;;;;;8.57;5.72;;;4.90;75.70;;;;;;5044443;28;20033;-66
2020/12/16 03:53:23;;;;;;;8.20;6.13;;;4.90;75.70;;;;;;5046123;28;20088;-66
2020/12/16 03:55:53;;;;;;;6.88;4.82;;;4.90;75.90;;;;;;5047677;28;20021;-66
2020/12/16 03:58:19;;;;;;;8.07;5.50;;;5.00;76.20;;;;;;5052664;28;20462;-66
2020/12/16 04:00:45;;;;;;;7.75;5.80;;;5.00;76.20;;;;;;5047325;28;20036;-66
2020/12/16 04:03:11;;;;;;;8.57;6.40;;;5.00;75.90;;;;;;5049296;28;20552;-66
2020/12/16 04:05:36;;;;;;;8.45;5.70;;;5.00;75.90;;;;;;5039460;28;20033;-66
2020/12/16 04:08:03;;;;;;;8.60;6.20;;;5.00;76.20;;;;;;5051243;28;20052;-66
2020/12/16 04:10:29;;;;;;;8.50;5.85;;;5.10;75.90;;;;;;5043985;28;20026;-66
2020/12/16 04:12:54;;;;;;;8.55;5.55;;;5.10;75.90;;;;;;5046422;28;20029;-66
2020/12/16 04:15:20;;;;;;;9.55;6.63;;;5.00;75.90;;;;;;5038830;28;20108;-66
2020/12/16 04:17:46;;;;;;;10.38;7.22;;;5.10;75.90;;;;;;5039598;28;20021;-66
2020/12/16 04:20:11;;;;;;;10.90;7.43;;;5.10;75.90;;;;;;5052261;28;20044;-66
2020/12/16 04:22:37;;;;;;;10.77;7.10;;;5.00;75.90;;;;;;5043527;28;20037;-66
2020/12/16 04:25:04;;;;;;;9.80;6.03;;;5.10;76.20;;;;;;5048420;28;20025;-66
2020/12/16 04:27:30;;;;;;;9.23;6.30;;;5.10;76.10;;;;;;5051737;28;20056;-66
2020/12/16 04:29:56;;;;;;;8.52;5.85;;;5.10;76.00;;;;;;5052645;28;20040;-66
2020/12/16 04:32:22;;;;;;;8.75;6.18;;;5.10;75.60;;;;;;5052651;28;20445;-66
2020/12/16 04:34:47;;;;;;;9.88;6.70;;;5.10;75.60;;;;;;5051088;28;20083;-66
2020/12/16 04:37:13;;;;;;;10.57;7.05;;;5.00;75.50;;;;;;5051061;28;20025;-66
2020/12/16 04:39:39;;;;;;;10.45;6.68;;;5.00;75.70;;;;;;5051024;28;20108;-66
2020/12/16 04:42:05;;;;;;;8.98;5.70;;;5.00;75.60;;;;;;5051369;28;20032;-66
2020/12/16 04:44:30;;;;;;;9.30;5.40;;;5.00;75.70;;;;;;5052062;28;20070;-66
2020/12/16 04:46:56;;;;;;;8.18;5.93;;;5.00;75.70;;;;;;5048691;28;20029;-66
2020/12/16 04:49:22;;;;;;;10.65;6.65;;;5.00;75.80;;;;;;5049650;28;20512;-66
2020/12/16 04:51:49;;;;;;;8.88;6.00;;;5.00;75.80;;;;;;5040520;28;20029;-66
2020/12/16 04:54:15;;;;;;;8.23;5.80;;;5.00;76.10;;;;;;5038788;28;20053;-66
2020/12/16 04:56:41;;;;;;;9.52;5.70;;;5.00;75.80;;;;;;5046967;28;20415;-66
2020/12/16 04:59:08;;;;;;;10.57;7.40;;;5.00;75.50;;;;;;5045549;28;20504;-66
2020/12/16 05:01:39;;;;;;;9.05;6.30;;;5.00;75.50;;;;;;5037929;28;20075;-66
2020/12/16 05:04:05;;;;;;;8.85;6.40;;;5.00;75.80;;;;;;5048497;28;20396;-66
2020/12/16 05:06:34;;;;;;;8.43;5.65;;;5.00;75.80;;;;;;5052603;28;20084;-66
2020/12/16 05:09:14;;;;;;;10.38;7.22;;;5.00;75.70;;;;;;5050295;28;20041;-66
2020/12/16 05:11:52;;;;;;;9.23;6.20;;;5.10;75.70;;;;;;5041887;28;20063;-66
2020/12/16 05:14:20;;;;;;;9.73;6.50;;;5.00;75.50;;;;;;5045792;28;20097;-66
2020/12/16 05:16:55;;;;;;;12.75;7.43;;;5.00;75.50;;;;;;5045883;28;20021;-66
2020/12/16 05:19:36;;;;;;;12.05;7.93;;;5.10;75.40;;;;;;5048614;28;20039;-66
2020/12/16 05:22:13;;;;;;;10.52;7.53;;;5.10;75.50;;;;;;5046926;28;20120;-66
2020/12/16 05:24:40;;;;;;;10.63;6.47;;;5.10;75.30;;;;;;5046629;28;20075;-66
2020/12/16 05:27:13;;;;;;;13.02;10.20;;;5.10;75.20;;;;;;5045187;28;20040;-66
2020/12/16 05:29:38;;;;;;;12.25;8.45;;;5.10;75.10;;;;;;5052136;28;20457;-66
2020/12/16 05:32:15;;;;;;;10.80;7.20;;;5.10;75.20;;;;;;5054070;28;20078;-66
2020/12/16 05:34:40;;;;;;;10.75;7.05;;;5.10;75.10;;;;;;5051798;28;20036;-66
2020/12/16 05:37:27;;;;;;;7.95;5.65;;;5.10;74.90;;;;;;5056165;28;20029;-66
2020/12/16 05:39:54;;;;;;;9.63;6.32;;;5.10;75.00;;;;;;5047180;28;20051;-66
2020/12/16 05:42:20;;;;;;;10.20;6.55;;;5.00;74.90;;;;;;5061538;28;20056;-66
2020/12/16 05:44:46;;;;;;;8.90;5.82;;;5.10;75.00;;;;;;5047319;28;20053;-68
2020/12/16 05:47:11;;;;;;;9.63;6.47;;;5.00;75.20;;;;;;5046337;28;20044;-65
2020/12/16 05:49:37;;;;;;;9.70;6.45;;;5.10;75.30;;;;;;5046526;28;20032;-65
2020/12/16 05:52:05;;;;;;;8.40;6.15;;;5.00;75.20;;;;;;5054587;28;20095;-65
2020/12/16 05:54:32;;;;;;;11.70;7.05;;;5.00;75.00;;;;;;5050000;28;20028;-65
2020/12/16 05:57:14;;;;;;;11.20;7.47;;;5.00;75.10;;;;;;5048634;28;20536;-65
2020/12/16 05:59:40;;;;;;;9.63;6.95;;;5.00;74.90;;;;;;5048760;28;20075;-65
2020/12/16 06:02:06;;;;;;;8.20;5.63;;;5.00;75.00;;;;;;5047571;28;20489;-65
2020/12/16 06:04:36;;;;;;;10.68;7.82;;;5.00;75.00;;;;;;5051203;28;20033;-65
2020/12/16 06:07:03;;;;;;;10.18;7.25;;;5.00;74.90;;;;;;5050674;28;20086;-65
2020/12/16 06:09:31;;;;;;;10.38;6.85;;;5.00;74.80;;;;;;5049820;28;20017;-65
2020/12/16 06:12:06;;;;;;;10.60;7.60;;;5.00;74.90;;;;;;5050583;28;20017;-65
2020/12/16 06:14:34;;;;;;;9.40;6.85;;;5.00;75.10;;;;;;5050343;28;20100;-65
2020/12/16 06:17:11;;;;;;;11.20;7.75;;;5.00;74.80;;;;;;5048776;28;20025;-65
2020/12/16 06:19:43;;;;;;;11.50;7.28;;;5.10;75.00;;;;;;5047044;28;20025;-65
2020/12/16 06:22:10;;;;;;;10.60;6.78;;;5.10;75.00;;;;;;5046835;28;20025;-65
2020/12/16 06:24:44;;;;;;;11.55;8.02;;;5.10;75.00;;;;;;5044721;28;20052;-65
2020/12/16 06:27:12;;;;;;;9.20;6.95;;;5.10;74.70;;;;;;5048259;28;20029;-65
2020/12/16 06:29:41;;;;;;;11.05;6.68;;;5.10;74.80;;;;;;5048472;28;20057;-66
2020/12/16 06:32:15;;;;;;;9.68;7.30;;;5.10;74.70;;;;;;5045298;28;20033;-65
2020/12/16 06:34:45;;;;;;;11.05;7.22;;;5.10;74.90;;;;;;5048731;28;20017;-65
2020/12/16 06:37:20;;;;;;;10.57;7.00;;;5.10;74.90;;;;;;5054464;28;20021;-65
2020/12/16 06:39:45;;;;;;;9.02;6.63;;;5.20;74.80;;;;;;5053635;28;20443;-66
2020/12/16 06:42:11;;;;;;;9.18;6.22;;;5.20;74.80;;;;;;5055639;28;20040;-66
2020/12/16 06:44:37;;;;;;;9.57;6.45;;;5.10;74.30;;;;;;5049742;28;20039;-65
2020/12/16 06:47:03;;;;;;;9.82;6.55;;;5.10;74.30;;;;;;5045010;28;20113;-65
2020/12/16 06:49:31;;;;;;;9.32;5.57;;;5.10;74.20;;;;;;5047998;28;20032;-66
2020/12/16 06:52:02;;;;;;;8.90;6.20;;;5.10;74.30;;;;;;5050419;28;20029;-52
2020/12/16 06:54:41;;;;;;;11.13;6.60;;;5.10;74.30;;;;;;5051702;28;20026;-56
2020/12/16 06:57:19;;;;;;;7.85;6.28;;;5.10;74.40;;;;;;5042677;28;20025;-54
2020/12/16 06:59:53;;;;;;;9.25;6.20;;;5.00;74.70;;;;;;5054673;28;20098;-54
2020/12/16 07:02:25;;;;;;;10.00;6.18;;;5.00;74.40;;;;;;5048095;28;20037;-57
2020/12/16 07:04:51;;;;;;;11.05;7.10;;;5.10;74.70;;;;;;5051374;28;20032;-56
2020/12/16 07:07:49;;;;;;;8.75;6.53;;;5.00;74.50;;;;;;5047217;28;20037;-55
2020/12/16 07:10:48;;;;;;;10.65;7.38;;;5.00;74.00;;;;;;5051373;28;20033;-55
2020/12/16 07:13:21;;;;;;;11.60;7.47;;;4.90;74.00;;;;;;4990211;28;20041;-55
2020/12/16 07:15:47;;;;;;;12.15;8.07;;;4.90;74.60;;;;;;5044985;28;20035;-56
2020/12/16 07:18:29;;;;;;;12.68;8.07;;;4.90;74.70;;;;;;5044852;28;20666;-55
2020/12/16 07:21:08;;;;;;;12.40;8.15;;;5.00;74.80;;;;;;5043862;28;20033;-57
2020/12/16 07:23:45;;;;;;;10.02;7.18;;;5.00;74.70;;;;;;5048070;28;20158;-57
2020/12/16 07:26:21;;;;;;;8.70;6.18;;;5.00;74.70;;;;;;5042724;28;20420;-55
2020/12/16 07:28:47;;;;;;;11.73;8.20;;;5.00;74.40;;;;;;5026949;28;20108;-54
2020/12/16 07:31:15;;;;;;;9.82;7.20;;;5.00;74.10;;;;;;5021969;28;20018;-56
2020/12/16 07:33:41;;;;;;;12.43;9.00;;;5.00;74.10;;;;;;5028158;28;20041;-56
2020/12/16 07:36:08;;;;;;;12.60;8.43;;;5.00;74.40;;;;;;5027927;28;20061;-55
2020/12/16 07:38:34;;;;;;;9.80;6.75;;;5.10;74.60;;;;;;5027917;28;20021;-56
2020/12/16 07:41:00;;;;;;;8.00;5.72;;;5.10;74.50;;;;;;5034227;28;20043;-55
2020/12/16 07:43:27;;;;;;;12.65;7.22;;;5.10;73.90;;;;;;5019428;28;20400;-56
2020/12/16 07:46:02;;;;;;;8.82;6.72;;;5.00;73.40;;;;;;5018804;28;21582;-55
2020/12/16 07:48:28;;;;;;;9.00;6.57;;;5.00;73.90;;;;;;5015240;28;20033;-56
2020/12/16 07:51:07;;;;;;;10.85;7.30;;;4.90;73.90;;;;;;5016155;28;20045;-55
2020/12/16 07:53:33;;;;;;;9.30;7.63;;;4.90;74.20;;;;;;5019407;28;20546;-56
2020/12/16 07:56:02;;;;;;;13.73;8.13;;;5.00;74.60;;;;;;5018654;28;20022;-54
2020/12/16 07:58:32;;;;;;;13.73;9.27;;;5.00;74.60;;;;;;5025891;28;20030;-55
2020/12/16 08:01:13;;;;;;;13.60;9.15;;;5.00;74.70;;;;;;5018407;28;20033;-55
2020/12/16 08:03:40;;;;;;;15.52;9.48;;;5.10;74.50;;;;;;5022870;28;20064;-56
2020/12/16 08:06:06;;;;;;;13.95;9.38;;;5.10;74.10;;;;;;5024434;28;20469;-54
2020/12/16 08:08:41;;;;;;;13.07;9.32;;;5.10;74.00;;;;;;5016396;28;20030;-55
2020/12/16 08:11:21;;;;;;;11.25;8.07;;;5.10;73.60;;;;;;5010258;28;20037;-56
2020/12/16 08:13:48;;;;;;;15.88;11.00;;;5.10;73.80;;;;;;5016321;28;20113;-56
2020/12/16 08:16:14;;;;;;;17.38;12.25;;;5.10;73.80;;;;;;5018040;28;20057;-56
2020/12/16 08:18:48;;;;;;;18.33;11.63;;;5.00;74.00;;;;;;5012939;28;20057;-56
2020/12/16 08:21:18;;;;;;;18.13;12.02;;;5.10;74.40;;;;;;5011722;28;20026;-54
2020/12/16 08:23:45;;;;;;;11.43;8.48;;;5.10;74.00;;;;;;5014253;28;20040;-57
2020/12/16 08:26:11;;;;;;;10.70;7.53;;;5.00;73.70;;;;;;5012550;28;20039;-57
2020/12/16 08:28:37;;;;;;;13.23;9.13;;;5.00;73.50;;;;;;5015515;28;20046;-57
2020/12/16 08:31:03;;;;;;;13.30;8.00;;;4.90;73.10;;;;;;5013050;28;20445;-56
2020/12/16 08:33:30;;;;;;;13.18;8.55;;;4.80;73.10;;;;;;5019695;28;20025;-55
2020/12/16 08:36:09;;;;;;;13.95;8.57;;;4.70;73.30;;;;;;5021522;28;20537;-56
2020/12/16 08:38:41;;;;;;;11.05;8.10;;;4.70;73.60;;;;;;5023367;28;20109;-57
2020/12/16 08:41:12;;;;;;;14.25;8.93;;;4.70;73.90;;;;;;5017285;28;20034;-57
2020/12/16 08:43:42;;;;;;;15.55;10.27;;;4.70;74.10;;;;;;5016517;28;20045;-56
2020/12/16 08:46:15;;;;;;;13.70;9.52;;;4.70;74.50;;;;;;5014511;28;20137;-56
2020/12/16 08:48:48;;;;;;;13.70;10.13;;;4.80;74.80;;;;;;5016033;28;20095;-56
2020/12/16 08:51:35;;;;;;;17.95;10.90;;;4.80;75.20;;;;;;5013461;28;20534;-56
2020/12/16 08:54:09;;;;;;;12.95;8.80;;;4.90;74.90;;;;;;5017449;28;20022;-54
2020/12/16 08:56:41;;;;;;;13.25;8.65;;;5.00;74.90;;;;;;5027926;28;20120;-56
2020/12/16 08:59:12;;;;;;;9.80;6.85;;;5.00;74.90;;;;;;5012985;28;20120;-55
2020/12/16 09:01:41;;;;;;;10.55;7.63;;;5.10;74.80;;;;;;5014124;28;20030;-55
2020/12/16 09:04:08;;;;;;;13.27;8.25;;;5.10;74.70;;;;;;5019643;28;21099;-56
2020/12/16 09:06:34;;;;;;;12.10;8.27;;;5.20;74.70;;;;;;5021575;28;20505;-56
2020/12/16 09:09:00;;;;;;;12.75;8.43;;;5.20;74.60;;;;;;5018008;28;20068;-55
2020/12/16 09:11:26;;;;;;;13.00;8.15;;;5.30;74.50;;;;;;5019724;28;20786;-54
2020/12/16 09:13:58;;;;;;;12.18;8.68;;;5.30;74.40;;;;;;5015433;28;20033;-55
2020/12/16 09:16:25;;;;;;;13.63;8.88;;;5.30;74.20;;;;;;5010653;28;20029;-55
2020/12/16 09:18:53;;;;;;;14.88;9.57;;;5.30;74.20;;;;;;5016188;28;20128;-55
2020/12/16 09:21:31;;;;;;;14.32;9.43;;;5.40;74.00;;;;;;5013239;28;20025;-54
2020/12/16 09:23:57;;;;;;;14.35;10.18;;;5.40;73.80;;;;;;5021054;28;20105;-55
2020/12/16 09:26:43;;;;;;;15.88;11.07;;;5.40;73.90;;;;;;5015321;28;20031;-55
2020/12/16 09:29:16;;;;;;;13.90;10.52;;;5.40;73.50;;;;;;5030448;28;20155;-55
2020/12/16 09:31:42;;;;;;;19.98;11.90;;;5.30;74.20;;;;;;5034343;28;20025;-55
2020/12/16 09:34:07;;;;;;;14.75;9.73;;;5.30;73.00;;;;;;5034546;28;20059;-54
2020/12/16 09:36:33;;;;;;;24.75;15.32;;;5.20;72.90;;;;;;5036160;28;20025;-55
2020/12/16 09:39:03;;;;;;;27.55;15.38;;;5.10;73.30;;;;;;5033632;28;20543;-54
2020/12/16 09:41:40;;;;;;;25.50;13.25;;;5.10;73.70;;;;;;5037028;28;20032;-55
2020/12/16 09:44:06;;;;;;;18.08;10.93;;;5.10;73.80;;;;;;5040194;28;20050;-52
2020/12/16 09:46:31;;;;;;;14.35;10.05;;;5.00;73.20;;;;;;5038493;28;20029;-52
2020/12/16 09:49:00;;;;;;;15.10;9.70;;;4.90;73.10;;;;;;5037435;28;20052;-53
2020/12/16 09:51:26;;;;;;;15.63;10.52;;;4.80;73.50;;;;;;5035298;28;20021;-55
2020/12/16 09:53:54;;;;;;;13.25;8.93;;;4.80;74.00;;;;;;5035683;28;20424;-55
2020/12/16 09:56:27;;;;;;;13.18;8.75;;;4.80;74.40;;;;;;5037185;28;20078;-54
2020/12/16 09:58:53;;;;;;;13.48;8.38;;;4.80;74.00;;;;;;5038716;28;20017;-54
2020/12/16 10:01:20;;;;;;;19.10;10.05;;;4.70;73.80;;;;;;5033129;28;20027;-55
2020/12/16 10:03:49;;;;;;;21.77;11.27;;;4.70;74.00;;;;;;5035421;28;20059;-54
2020/12/16 10:06:16;;;;;;;20.23;12.13;;;4.70;73.90;;;;;;5031775;28;20025;-54
2020/12/16 10:08:42;;;;;;;20.38;11.38;;;4.60;74.20;;;;;;5036920;28;20033;-54
2020/12/16 10:11:12;;;;;;;15.73;10.02;;;4.60;74.20;;;;;;5039852;28;20029;-52
2020/12/16 10:13:38;;;;;;;18.17;10.73;;;4.60;74.60;;;;;;5039639;28;20025;-54
2020/12/16 10:16:04;;;;;;;22.65;11.27;;;4.60;75.10;;;;;;5037885;28;20070;-53
2020/12/16 10:18:30;;;;;;;41.03;16.90;;;4.70;75.40;;;;;;5035502;28;20032;-54
2020/12/16 10:20:56;;;;;;;61.65;24.80;;;4.70;75.40;;;;;;5031227;28;20041;-55
2020/12/16 10:23:21;;;;;;;75.05;27.58;;;4.80;75.40;;;;;;5037021;28;20033;-55
2020/12/16 10:25:47;;;;;;;53.45;25.27;;;4.90;75.40;;;;;;5043490;28;20061;-56
2020/12/16 10:28:13;;;;;;;63.85;28.10;;;4.90;75.10;;;;;;5049528;28;20437;-55
2020/12/16 10:30:39;;;;;;;61.95;27.38;;;5.00;75.00;;;;;;5036478;28;20157;-55
2020/12/16 10:33:05;;;;;;;58.25;25.50;;;5.00;75.00;;;;;;5040592;28;20021;-56
2020/12/16 10:35:30;;;;;;;51.90;23.13;;;5.10;74.80;;;;;;5042145;28;20117;-56
2020/12/16 10:37:57;;;;;;;42.78;20.38;;;5.20;75.10;;;;;;5041581;28;20028;-56
2020/12/16 10:40:23;;;;;;;42.72;20.17;;;5.20;74.90;;;;;;5023279;28;20034;-56
2020/12/16 10:42:49;;;;;;;35.33;17.35;;;5.20;74.90;;;;;;5040287;28;20536;-56
2020/12/16 10:45:16;;;;;;;31.45;16.35;;;5.30;74.50;;;;;;5039506;28;20029;-56
2020/12/16 10:47:45;;;;;;;34.97;18.77;;;5.30;74.40;;;;;;5026910;28;20033;-55
2020/12/16 10:50:12;;;;;;;30.08;16.60;;;5.30;74.40;;;;;;5040470;28;20079;-54
2020/12/16 10:52:37;;;;;;;48.20;23.15;;;5.30;74.50;;;;;;5036520;28;20021;-55
2020/12/16 10:55:03;;;;;;;83.25;32.17;;;5.40;74.20;;;;;;5039905;28;20040;-56
2020/12/16 10:57:29;;;;;;;67.28;28.83;;;5.40;74.10;;;;;;5036939;28;20631;-55
2020/12/16 10:59:54;;;;;;;56.25;25.60;;;5.40;74.30;;;;;;5040973;28;20032;-56
2020/12/16 11:02:20;;;;;;;49.08;23.15;;;5.40;74.10;;;;;;5041681;28;20063;-54
2020/12/16 11:04:47;;;;;;;39.55;21.30;;;5.40;73.90;;;;;;5036600;28;20071;-52
2020/12/16 11:07:13;;;;;;;56.85;26.23;;;5.40;73.90;;;;;;5040595;28;20033;-56
2020/12/16 11:09:39;;;;;;;60.03;28.00;;;5.40;74.00;;;;;;5039167;28;20041;-56
2020/12/16 11:12:05;;;;;;;81.80;37.92;;;5.40;74.20;;;;;;5044578;28;20020;-55
2020/12/16 11:14:30;;;;;;;73.60;31.83;;;5.40;74.00;;;;;;5043125;28;20029;-56
2020/12/16 11:16:56;;;;;;;39.25;19.55;;;5.40;73.90;;;;;;5047307;28;20033;-56
2020/12/16 11:19:22;;;;;;;29.55;15.52;;;5.40;74.10;;;;;;5041543;28;20501;-56
2020/12/16 11:21:50;;;;;;;24.13;15.07;;;5.50;73.50;;;;;;5037390;28;20631;-55
2020/12/16 11:24:18;;;;;;;22.77;13.75;;;5.50;73.70;;;;;;5045978;28;20032;-54
2020/12/16 11:26:47;;;;;;;18.88;11.52;;;5.50;73.50;;;;;;5039538;28;20112;-55
2020/12/16 11:29:15;;;;;;;19.88;12.30;;;5.50;73.60;;;;;;5036842;28;20520;-56
2020/12/16 11:31:43;;;;;;;22.30;13.75;;;5.50;73.70;;;;;;5040867;28;20040;-55
2020/12/16 11:34:28;;;;;;;26.30;14.88;;;5.50;73.70;;;;;;5002944;28;20045;-56
2020/12/16 11:36:59;;;;;;;31.38;17.23;;;5.50;73.90;;;;;;5037728;28;20325;-54
2020/12/16 11:39:25;;;;;;;;;;;5.60;74.00;;;;;;5040945;28;20478;-56
2020/12/16 11:41:53;;;;;;;27.45;14.32;;;5.50;73.50;;;;;;5038689;28;19948;-56
2020/12/16 11:44:21;;;;;;;26.92;15.70;;;5.60;73.80;;;;;;5042199;28;20033;-56
2020/12/16 11:46:48;;;;;;;24.15;14.63;;;5.60;73.80;;;;;;5039576;28;20037;-56
2020/12/16 11:49:15;;;;;;;30.40;15.90;;;5.60;73.60;;;;;;5039903;28;20400;-56
2020/12/16 11:51:41;;;;;;;28.63;16.08;;;5.60;73.30;;;;;;5036771;28;20079;-55
2020/12/16 11:54:07;;;;;;;28.67;15.98;;;5.60;73.40;;;;;;5039988;28;20025;-56
2020/12/16 11:56:34;;;;;;;30.52;17.65;;;5.60;73.40;;;;;;5032426;28;20956;-56
2020/12/16 11:59:01;;;;;;;24.80;16.45;;;5.60;73.30;;;;;;5033331;28;20048;-55
2020/12/16 12:01:26;;;;;;;46.65;20.05;;;5.60;73.00;;;;;;5028091;28;20135;-56
2020/12/16 12:03:52;;;;;;;35.60;19.30;;;5.60;73.40;;;;;;5035722;28;20031;-56
2020/12/16 12:06:18;;;;;;;46.15;21.90;;;5.60;73.40;;;;;;5039035;28;20712;-56
2020/12/16 12:08:44;;;;;;;40.08;20.17;;;5.60;73.50;;;;;;5034427;28;20022;-56
2020/12/16 12:11:12;;;;;;;32.10;18.08;;;5.60;73.50;;;;;;5038713;28;20032;-55
2020/12/16 12:13:39;;;;;;;52.50;24.55;;;5.60;73.60;;;;;;5041199;28;20024;-53
2020/12/16 12:16:15;;;;;;;49.63;24.85;;;5.50;73.40;;;;;;5043862;28;20380;-54
2020/12/16 12:18:42;;;;;;;49.80;22.42;;;5.60;73.60;;;;;;5039384;28;20510;-53
2020/12/16 12:21:09;;;;;;;49.67;24.38;;;5.60;73.40;;;;;;5037371;28;20460;-55
2020/12/16 12:23:35;;;;;;;41.67;23.50;;;5.60;73.30;;;;;;5039385;28;20043;-53
2020/12/16 12:26:03;;;;;;;45.75;23.02;;;5.50;72.80;;;;;;5042661;28;20043;-55
2020/12/16 12:28:28;;;;;;;41.58;24.40;;;5.50;73.00;;;;;;5036849;28;20059;-55
2020/12/16 12:30:54;;;;;;;54.72;25.23;;;5.50;73.20;;;;;;5039809;28;20488;-53
2020/12/16 12:33:20;;;;;;;91.38;33.97;;;5.50;73.00;;;;;;5040356;28;20103;-50
2020/12/16 12:35:46;;;;;;;99.78;43.70;;;5.40;72.90;;;;;;5037843;28;20051;-54
2020/12/16 12:38:12;;;;;;;91.35;36.92;;;5.40;72.70;;;;;;5040182;28;20038;-54
2020/12/16 12:40:38;;;;;;;67.90;27.42;;;5.30;72.70;;;;;;5037439;28;20546;-52
2020/12/16 12:43:04;;;;;;;60.75;27.10;;;5.30;72.80;;;;;;5038377;28;20080;-54
2020/12/16 12:45:29;;;;;;;43.75;18.73;;;5.30;73.10;;;;;;5039523;28;20116;-54
2020/12/16 12:47:55;;;;;;;32.50;15.65;;;5.30;73.30;;;;;;5041895;28;20488;-54
2020/12/16 12:50:21;;;;;;;27.40;14.88;;;5.30;73.40;;;;;;5037118;28;20446;-51
2020/12/16 12:52:47;;;;;;;25.73;16.63;;;5.30;73.30;;;;;;5038622;28;20021;-53